Terminal Aerodrome Forecast
Issued by NWS

Home | Current Version | Previous Version | Graphics & Text | Print | Product List | Glossary On
Versions: 1 2 3 4 5 6 7 8 9 10 11 12 13 14 15 16 17 18 19 20
000
FTUS43 KABR 252321
TAFMBG
TAF
KMBG 252321Z 2600/2624 28015G25KT P6SM VCTS BKN060CB
     FM260100 27007KT P6SM SCT150
     FM261600 25009KT P6SM FEW200=

USA.gov is the U.S. government's official web portal to all federal, state and local government web resources and services.